Time;durP1;ratioP1;P1;durP2;ratioP2;P2;SDS_P1;SDS_P2;PMS_P1;PMS_P2;Temp;Humidity;BMP_temperature;BMP_pressure;BME280_temperature;BME280_humidity;BME280_pressure;Samples;Min_cycle;Max_cycle;Signal;HPM_P1;HPM_P2
2021/11/18 00:00:39;;;;;;;64.57;20.55;;;;;;;7.33;100.00;99820.00;5064012;28;20029;-67
2021/11/18 00:03:06;;;;;;;58.67;18.83;;;;;;;7.28;100.00;99829.53;5063843;28;20217;-67
2021/11/18 00:05:32;;;;;;;45.78;17.90;;;;;;;7.28;100.00;99816.44;5063767;28;20032;-67
2021/11/18 00:07:58;;;;;;;60.65;21.13;;;;;;;7.28;100.00;99821.66;5064047;28;20196;-67
2021/11/18 00:10:37;;;;;;;52.20;19.13;;;;;;;7.35;100.00;99820.91;5063711;28;20024;-67
2021/11/18 00:13:04;;;;;;;66.78;19.88;;;;;;;7.28;100.00;99811.19;5063763;28;20040;-67
2021/11/18 00:15:31;;;;;;;56.60;20.02;;;;;;;7.25;100.00;99811.19;5063549;28;20041;-67
2021/11/18 00:18:00;;;;;;;55.55;20.73;;;;;;;7.28;100.00;99841.75;5063390;28;20028;-67
2021/11/18 00:20:33;;;;;;;55.00;20.80;;;;;;;7.21;100.00;99848.66;5063655;28;20093;-67
2021/11/18 00:22:58;;;;;;;63.60;21.77;;;;;;;7.26;100.00;99848.72;5063395;28;20016;-67
2021/11/18 00:25:24;;;;;;;58.47;22.00;;;;;;;7.23;100.00;99852.19;5063661;28;20335;-67
2021/11/18 00:27:50;;;;;;;56.53;20.05;;;;;;;7.28;100.00;99858.34;5063795;28;20408;-67
2021/11/18 00:30:17;;;;;;;63.53;20.85;;;;;;;7.28;100.00;99855.72;5063385;28;20033;-67
2021/11/18 00:32:44;;;;;;;57.28;21.42;;;;;;;7.32;100.00;99852.31;5063777;28;20208;-67
2021/11/18 00:35:17;;;;;;;56.15;19.63;;;;;;;7.28;100.00;99871.44;5063288;28;20063;-67
2021/11/18 00:37:44;;;;;;;61.75;21.70;;;;;;;7.34;100.00;99865.41;5063038;28;20352;-67
2021/11/18 00:40:10;;;;;;;57.20;19.85;;;;;;;7.35;100.00;99868.06;5063404;28;20021;-67
2021/11/18 00:42:36;;;;;;;59.85;19.60;;;;;;;7.37;100.00;99868.06;5063329;28;20067;-67
2021/11/18 00:45:03;;;;;;;60.20;19.55;;;;;;;7.34;100.00;99889.84;5063252;28;20279;-67
2021/11/18 00:47:28;;;;;;;60.47;20.10;;;;;;;7.36;100.00;99895.09;5063552;28;20023;-67
2021/11/18 00:49:54;;;;;;;53.05;19.90;;;;;;;7.35;100.00;99881.16;5063275;28;20025;-67
2021/11/18 00:52:20;;;;;;;56.72;20.98;;;;;;;7.35;100.00;99883.78;5062975;28;20317;-67
2021/11/18 00:54:46;;;;;;;62.85;20.95;;;;;;;7.29;100.00;99896.78;5063242;28;20032;-67
2021/11/18 00:57:12;;;;;;;61.10;21.80;;;;;;;7.34;100.00;99895.09;5063003;28;20033;-67
2021/11/18 00:59:37;;;;;;;47.60;19.00;;;;;;;7.37;100.00;99889.88;5063108;28;20320;-67
2021/11/18 01:02:03;;;;;;;55.55;20.30;;;;;;;7.43;100.00;99883.88;5063234;28;20021;-67
2021/11/18 01:04:30;;;;;;;63.88;21.70;;;;;;;7.31;100.00;99889.81;5062774;28;20032;-67
2021/11/18 01:06:56;;;;;;;60.10;22.13;;;;;;;7.37;100.00;99895.13;5063240;28;20072;-67
2021/11/18 01:09:22;;;;;;;60.75;20.77;;;;;;;7.36;100.00;99888.13;5063109;28;20029;-67
2021/11/18 01:11:49;;;;;;;59.17;21.85;;;;;;;7.37;100.00;99895.13;5062960;28;20036;-67
2021/11/18 01:14:18;;;;;;;73.57;22.33;;;;;;;7.39;100.00;99908.25;5062914;28;20104;-67
2021/11/18 01:16:46;;;;;;;52.50;19.65;;;;;;;7.42;100.00;99901.31;5062852;28;20221;-67
2021/11/18 01:19:12;;;;;;;52.40;19.05;;;;;;;7.28;100.00;99915.94;5063021;28;20037;-67
2021/11/18 01:21:40;;;;;;;61.03;22.30;;;;;;;7.34;100.00;99897.69;5062841;28;20110;-67
2021/11/18 01:24:06;;;;;;;64.40;22.63;;;;;;;7.33;100.00;99888.09;5063032;28;20370;-67
2021/11/18 01:26:32;;;;;;;64.18;21.17;;;;;;;7.35;100.00;99903.84;5063216;28;20023;-67
2021/11/18 01:29:01;;;;;;;58.58;20.73;;;;;;;7.40;100.00;99905.63;5062763;28;20259;-67
2021/11/18 01:31:27;;;;;;;66.82;23.33;;;;;;;7.38;100.00;99922.22;5062647;28;20017;-67
2021/11/18 01:33:54;;;;;;;63.85;22.23;;;;;;;7.43;100.00;99910.94;5062368;28;20090;-67
2021/11/18 01:36:19;;;;;;;63.97;20.63;;;;;;;7.42;100.00;99924.00;5061640;28;20029;-67
2021/11/18 01:38:45;;;;;;;57.72;20.42;;;;;;;7.44;100.00;99923.16;5062922;28;20049;-67
2021/11/18 01:41:15;;;;;;;67.35;23.20;;;;;;;7.38;100.00;99922.22;5062825;28;20017;-67
2021/11/18 01:43:45;;;;;;;57.08;22.08;;;;;;;7.41;100.00;99928.38;5062551;28;20122;-67
2021/11/18 01:46:18;;;;;;;70.20;22.52;;;;;;;7.46;100.00;99942.41;5063077;28;20092;-67
2021/11/18 01:48:48;;;;;;;57.92;21.30;;;;;;;7.46;100.00;99942.41;5058452;28;20274;-67
2021/11/18 01:51:15;;;;;;;62.05;21.20;;;;;;;7.43;100.00;99942.34;5066369;28;20025;-67
2021/11/18 01:53:44;;;;;;;66.15;22.20;;;;;;;7.44;100.00;99933.63;5066406;28;20063;-67
2021/11/18 01:56:14;;;;;;;63.70;22.58;;;;;;;7.41;100.00;99928.38;5066242;28;20020;-67
2021/11/18 01:58:40;;;;;;;61.33;23.08;;;;;;;7.47;100.00;99943.28;5066348;28;20028;-67
2021/11/18 02:01:08;;;;;;;60.78;21.80;;;;;;;7.44;100.00;99948.50;5066211;28;20021;-67
2021/11/18 02:03:34;;;;;;;56.45;20.65;;;;;;;7.45;100.00;99935.41;5065974;28;20021;-67
2021/11/18 02:06:05;;;;;;;71.45;23.90;;;;;;;7.49;100.00;99931.06;5065825;28;20067;-67
2021/11/18 02:08:31;;;;;;;75.13;22.15;;;;;;;7.36;100.00;99940.53;5065780;28;20255;-67
2021/11/18 02:11:02;;;;;;;77.32;24.80;;;;;;;7.39;100.00;99948.41;5065957;28;20076;-67
2021/11/18 02:13:28;;;;;;;68.50;21.13;;;;;;;7.48;100.00;99951.19;5066275;28;20120;-67
2021/11/18 02:15:57;;;;;;;67.65;23.25;;;;;;;7.53;100.00;99953.88;5065642;28;20236;-67
2021/11/18 02:18:29;;;;;;;73.15;24.27;;;;;;;7.51;100.00;99951.22;5065837;28;20092;-67
2021/11/18 02:20:57;;;;;;;71.55;23.92;;;;;;;7.49;100.00;99955.53;5065820;28;20025;-67
2021/11/18 02:23:29;;;;;;;77.53;24.88;;;;;;;7.51;100.00;99961.69;5064672;28;20017;-67
2021/11/18 02:25:56;;;;;;;66.22;23.42;;;;;;;7.52;100.00;99960.81;5064387;28;20086;-67
2021/11/18 02:28:26;;;;;;;80.90;26.15;;;;;;;7.57;100.00;99967.03;5065399;28;20190;-67
2021/11/18 02:30:55;;;;;;;84.78;26.85;;;;;;;7.50;100.00;99957.28;5066129;28;20012;-67
2021/11/18 02:33:22;;;;;;;79.32;24.20;;;;;;;7.44;100.00;99975.53;5065732;28;20021;-67
2021/11/18 02:35:48;;;;;;;71.72;24.35;;;;;;;7.51;100.00;99981.75;5065484;28;20021;-67
2021/11/18 02:38:15;;;;;;;72.90;23.63;;;;;;;7.58;100.00;99989.75;5065471;28;20090;-67
2021/11/18 02:40:42;;;;;;;63.08;21.98;;;;;;;7.59;100.00;99988.88;5065409;28;20021;-67
2021/11/18 02:43:09;;;;;;;70.57;24.45;;;;;;;7.61;100.00;99988.88;5064922;28;20021;-67
2021/11/18 02:45:36;;;;;;;71.25;23.85;;;;;;;7.59;100.00;99990.63;5064920;28;20023;-67
2021/11/18 02:48:03;;;;;;;72.95;24.30;;;;;;;7.59;100.00;99981.00;5064969;28;20118;-67
2021/11/18 02:50:37;;;;;;;64.22;22.42;;;;;;;7.56;100.00;99991.44;5065146;28;20024;-67
2021/11/18 02:53:04;;;;;;;76.30;23.38;;;;;;;7.52;100.00;99994.00;5065201;28;20260;-67
2021/11/18 02:55:35;;;;;;;79.68;24.60;;;;;;;7.54;100.00;99998.41;5065115;28;20063;-67
2021/11/18 02:58:00;;;;;;;76.53;26.40;;;;;;;7.56;100.00;100001.91;5065228;28;20021;-67
2021/11/18 03:00:30;;;;;;;77.85;27.23;;;;;;;7.57;100.00;100008.06;5064473;28;20033;-67
2021/11/18 03:02:56;;;;;;;73.70;25.10;;;;;;;7.58;100.00;100005.47;5065104;28;20025;-67
2021/11/18 03:05:23;;;;;;;74.80;23.75;;;;;;;7.58;100.00;100015.94;5065030;28;20021;-67
2021/11/18 03:07:50;;;;;;;77.43;24.70;;;;;;;7.58;100.00;100009.81;5064978;28;20020;-67
2021/11/18 03:10:17;;;;;;;71.53;24.05;;;;;;;7.54;100.00;100003.66;5063796;28;20092;-67
2021/11/18 03:12:43;;;;;;;74.07;24.17;;;;;;;7.57;100.00;100023.78;5064920;28;20021;-67
2021/11/18 03:15:11;;;;;;;77.53;25.60;;;;;;;7.51;100.00;100024.56;5064673;28;20258;-67
2021/11/18 03:17:37;;;;;;;79.43;26.10;;;;;;;7.55;100.00;100021.13;5064455;28;20028;-67
2021/11/18 03:20:07;;;;;;;88.32;26.33;;;;;;;7.54;100.00;100029.84;5064802;28;20028;-67
2021/11/18 03:22:32;;;;;;;83.00;24.20;;;;;;;7.54;100.00;100034.22;5064678;28;20021;-67
2021/11/18 03:24:58;;;;;;;68.68;23.00;;;;;;;7.54;100.00;100027.25;5064485;28;20028;-67
2021/11/18 03:27:23;;;;;;;82.95;25.60;;;;;;;7.42;100.00;100029.66;5064716;28;20070;-67
2021/11/18 03:29:48;;;;;;;69.43;24.20;;;;;;;7.42;100.00;100024.44;5064145;28;20025;-67
2021/11/18 03:32:14;;;;;;;82.38;25.38;;;;;;;7.45;100.00;100034.97;5064571;28;20024;-67
2021/11/18 03:34:39;;;;;;;84.22;28.25;;;;;;;7.49;100.00;100042.00;5064577;28;20028;-67
2021/11/18 03:37:05;;;;;;;83.95;25.95;;;;;;;7.50;100.00;100059.47;5064299;28;20321;-67
2021/11/18 03:39:31;;;;;;;80.95;24.92;;;;;;;7.53;100.00;100043.78;5064237;28;20024;-67
2021/11/18 03:42:01;;;;;;;74.50;25.95;;;;;;;7.47;100.00;100041.06;5064452;28;20292;-67
2021/11/18 03:44:27;;;;;;;76.95;24.52;;;;;;;7.50;100.00;100037.66;5064226;28;20021;-67
2021/11/18 03:47:02;;;;;;;81.57;25.98;;;;;;;7.54;100.00;100060.41;5064208;28;20017;-67
2021/11/18 03:49:28;;;;;;;78.28;26.02;;;;;;;7.50;100.00;100063.84;5064248;28;20335;-67
2021/11/18 03:51:57;;;;;;;73.30;24.23;;;;;;;7.46;100.00;100073.38;5064191;28;20021;-67
2021/11/18 03:54:26;;;;;;;79.28;26.00;;;;;;;7.52;100.00;100073.47;5064176;28;20048;-67
2021/11/18 03:56:52;;;;;;;65.60;23.98;;;;;;;7.50;100.00;100066.47;5064028;28;20025;-67
2021/11/18 03:59:20;;;;;;;82.90;25.35;;;;;;;7.50;100.00;100083.03;5064044;28;20369;-67
2021/11/18 04:01:47;;;;;;;73.43;24.33;;;;;;;7.51;100.00;100082.22;5064132;28;20312;-67
2021/11/18 04:04:17;;;;;;;74.03;24.20;;;;;;;7.46;100.00;100086.47;5063930;28;20025;-67
2021/11/18 04:06:43;;;;;;;74.38;25.23;;;;;;;7.48;100.00;100087.41;5063632;28;20029;-67
2021/11/18 04:09:09;;;;;;;71.40;24.08;;;;;;;7.53;100.00;100090.97;5063839;28;20029;-67
2021/11/18 04:11:36;;;;;;;69.53;24.30;;;;;;;7.52;100.00;100078.72;5062775;28;20080;-67
2021/11/18 04:14:03;;;;;;;68.70;24.55;;;;;;;7.47;100.00;100077.75;5063480;28;20055;-67
2021/11/18 04:16:29;;;;;;;72.43;24.83;;;;;;;7.51;100.00;100071.72;5063283;28;20033;-67
2021/11/18 04:18:55;;;;;;;80.13;25.73;;;;;;;7.46;100.00;100083.88;5063789;28;20025;-67
2021/11/18 04:21:21;;;;;;;85.22;27.55;;;;;;;7.42;100.00;100076.81;5063910;28;20021;-67
2021/11/18 04:23:47;;;;;;;82.65;26.25;;;;;;;7.40;100.00;100083.75;5063429;28;20342;-67
2021/11/18 04:26:13;;;;;;;68.03;21.92;;;;;;;7.44;100.00;100085.56;5063596;28;20025;-67
2021/11/18 04:28:39;;;;;;;56.22;21.83;;;;;;;7.50;100.00;100090.91;5063453;28;20016;-67
2021/11/18 04:31:09;;;;;;;75.45;24.33;;;;;;;7.48;100.00;100086.50;5063511;28;20078;-67
2021/11/18 04:33:36;;;;;;;69.53;23.90;;;;;;;7.50;100.00;100080.44;5063420;28;20056;-67
2021/11/18 04:36:05;;;;;;;60.97;22.65;;;;;;;7.57;100.00;100074.44;5062199;28;20071;-67
2021/11/18 04:38:31;;;;;;;66.28;24.05;;;;;;;7.54;100.00;100074.41;5058847;28;20024;-67
2021/11/18 04:40:57;;;;;;;75.45;24.10;;;;;;;7.51;100.00;100073.47;5063495;28;20025;-67
2021/11/18 04:43:24;;;;;;;74.97;25.67;;;;;;;7.47;100.00;100084.75;5063200;28;20093;-67
2021/11/18 04:45:50;;;;;;;91.43;28.38;;;;;;;7.50;100.00;100085.66;5063278;28;20071;-67
2021/11/18 04:48:16;;;;;;;73.35;26.88;;;;;;;7.46;100.00;100089.09;5063238;28;20028;-67
2021/11/18 04:50:42;;;;;;;77.47;24.05;;;;;;;7.44;100.00;100090.81;5063279;28;20027;-67
2021/11/18 04:53:07;;;;;;;70.80;23.48;;;;;;;7.44;100.00;100096.03;5063344;28;20031;-67
2021/11/18 04:55:35;;;;;;;71.72;23.60;;;;;;;7.47;100.00;100100.47;5063149;28;20032;-67
2021/11/18 04:58:00;;;;;;;81.43;26.73;;;;;;;7.37;100.00;100104.66;5063087;28;20028;-67
2021/11/18 05:00:33;;;;;;;72.50;23.55;;;;;;;7.46;100.00;100104.81;5062625;28;20025;-67
2021/11/18 05:02:59;;;;;;;77.65;25.13;;;;;;;7.50;100.00;100096.16;5061673;28;20013;-67
2021/11/18 05:05:26;;;;;;;68.13;23.27;;;;;;;7.47;100.00;100085.63;5062337;28;20059;-67
2021/11/18 05:07:52;;;;;;;70.50;24.63;;;;;;;7.50;100.00;100106.63;5062206;28;20013;-67
2021/11/18 05:10:20;;;;;;;69.25;23.83;;;;;;;7.48;100.00;100113.59;5062347;28;20024;-67
2021/11/18 05:12:45;;;;;;;78.43;25.65;;;;;;;7.43;100.00;100117.88;5062266;28;20025;-67
2021/11/18 05:15:15;;;;;;;75.88;24.98;;;;;;;7.37;100.00;100120.38;5061433;28;20095;-67
2021/11/18 05:17:40;;;;;;;85.63;28.27;;;;;;;7.32;100.00;100127.28;5061928;28;20085;-67
2021/11/18 05:20:07;;;;;;;71.80;26.80;;;;;;;7.32;100.00;100121.16;5062134;28;20032;-67
2021/11/18 05:22:33;;;;;;;83.80;27.15;;;;;;;7.29;100.00;100124.63;5063311;28;20029;-67
2021/11/18 05:24:58;;;;;;;80.28;27.60;;;;;;;7.30;100.00;100125.47;5066043;28;20024;-67
2021/11/18 05:27:24;;;;;;;70.47;24.83;;;;;;;7.36;100.00;100128.22;5065738;28;20092;-67
2021/11/18 05:29:51;;;;;;;88.68;27.35;;;;;;;7.30;100.00;100134.22;5065799;28;20020;-67
2021/11/18 05:32:17;;;;;;;79.63;27.40;;;;;;;7.29;100.00;100131.59;5065690;28;20336;-67
2021/11/18 05:34:43;;;;;;;81.22;25.52;;;;;;;7.31;100.00;100130.75;5066025;28;20020;-67
2021/11/18 05:37:08;;;;;;;86.60;28.25;;;;;;;7.27;100.00;100134.19;5065545;28;20017;-67
2021/11/18 05:39:34;;;;;;;78.47;26.85;;;;;;;7.26;100.00;100121.94;5066638;28;20074;-67
2021/11/18 05:42:00;;;;;;;79.88;26.65;;;;;;;7.30;100.00;100136.84;5067034;28;20324;-67
2021/11/18 05:44:26;;;;;;;75.22;26.45;;;;;;;7.23;100.00;100132.38;5067115;28;20071;-67
2021/11/18 05:46:51;;;;;;;77.70;25.55;;;;;;;7.28;100.00;100135.94;5067019;28;20317;-67
2021/11/18 05:49:17;;;;;;;72.00;24.42;;;;;;;7.25;100.00;100138.53;5066893;28;20059;-67
2021/11/18 05:51:42;;;;;;;71.15;24.48;;;;;;;7.22;100.00;100135.84;5066891;28;20025;-67
2021/11/18 05:54:09;;;;;;;71.22;25.15;;;;;;;7.12;100.00;100144.38;5066904;28;20037;-67
2021/11/18 05:56:35;;;;;;;78.88;27.02;;;;;;;7.09;100.00;100143.44;5066784;28;20021;-67
2021/11/18 05:59:01;;;;;;;72.05;24.40;;;;;;;7.03;100.00;100144.22;5066767;28;20243;-67
2021/11/18 06:01:29;;;;;;;61.40;24.45;;;;;;;6.98;100.00;100153.72;5066707;28;20107;-67
2021/11/18 06:03:57;;;;;;;61.92;23.33;;;;;;;6.89;100.00;100143.06;5066576;28;20035;-67
2021/11/18 06:06:22;;;;;;;62.05;22.83;;;;;;;6.82;100.00;100143.81;5066676;28;20220;-67
2021/11/18 06:08:48;;;;;;;65.28;22.88;;;;;;;6.78;100.00;100152.47;5066870;28;20017;-67
2021/11/18 06:11:14;;;;;;;67.10;25.30;;;;;;;6.76;100.00;100155.88;5066520;28;20091;-67
2021/11/18 06:13:41;;;;;;;57.35;22.75;;;;;;;6.71;100.00;100153.19;5066775;28;20024;-67
2021/11/18 06:16:07;;;;;;;69.28;22.63;;;;;;;6.67;100.00;100153.97;5066305;28;20051;-67
2021/11/18 06:18:33;;;;;;;57.80;21.55;;;;;;;6.55;100.00;100164.16;5066387;28;20091;-67
2021/11/18 06:20:59;;;;;;;65.25;23.90;;;;;;;6.59;100.00;100158.19;5066377;28;20386;-67
2021/11/18 06:23:25;;;;;;;61.92;23.50;;;;;;;6.57;100.00;100157.25;5066337;28;20025;-67
2021/11/18 06:25:50;;;;;;;62.33;23.85;;;;;;;6.60;100.00;100165.16;5066301;28;20073;-67
2021/11/18 06:28:16;;;;;;;66.85;22.92;;;;;;;6.63;100.00;100153.03;5066286;28;20088;-67
2021/11/18 06:30:48;;;;;;;66.60;23.88;;;;;;;6.65;100.00;100160.91;5066228;28;20263;-67
2021/11/18 06:33:14;;;;;;;58.67;21.88;;;;;;;6.55;100.00;100153.69;5065934;28;20265;-67
2021/11/18 06:35:40;;;;;;;54.78;20.90;;;;;;;6.41;100.00;100165.63;5065331;28;20057;-67
2021/11/18 06:38:06;;;;;;;52.17;18.98;;;;;;;6.31;100.00;100158.44;5064910;28;20072;-67
2021/11/18 06:40:31;;;;;;;59.22;23.25;;;;;;;6.22;100.00;100169.59;5065318;28;20071;-67
2021/11/18 06:42:57;;;;;;;71.18;25.17;;;;;;;6.25;100.00;100163.53;5065983;28;20074;-67
2021/11/18 06:45:26;;;;;;;60.30;21.95;;;;;;;6.16;100.00;100168.53;5065907;28;20052;-67
2021/11/18 06:47:52;;;;;;;64.20;23.63;;;;;;;6.13;100.00;100165.88;5065851;28;20016;-67
2021/11/18 06:50:19;;;;;;;60.78;22.83;;;;;;;6.18;100.00;100166.88;5066104;28;20031;-67
2021/11/18 06:52:45;;;;;;;66.43;22.63;;;;;;;6.23;100.00;100165.22;5065778;28;20032;-67
2021/11/18 06:55:11;;;;;;;69.53;23.23;;;;;;;6.25;100.00;100174.00;5065764;28;20025;-67
2021/11/18 06:57:36;;;;;;;61.90;22.45;;;;;;;6.19;100.00;100186.91;5065602;28;20365;-67
2021/11/18 07:00:08;;;;;;;59.88;21.30;;;;;;;6.19;100.00;100179.97;5065603;28;20028;-67
2021/11/18 07:02:34;;;;;;;64.30;22.02;;;;;;;6.19;100.00;100173.84;5065550;28;20380;-67
2021/11/18 07:04:59;;;;;;;61.83;21.98;;;;;;;6.25;100.00;100189.69;5065439;28;20048;-67
2021/11/18 07:07:24;;;;;;;54.65;21.63;;;;;;;6.29;100.00;100181.03;5065481;28;20024;-67
2021/11/18 07:09:50;;;;;;;64.63;22.50;;;;;;;6.26;100.00;100186.19;5065493;28;20029;-67
2021/11/18 07:12:18;;;;;;;53.42;20.63;;;;;;;6.34;100.00;100189.88;5065633;28;20340;-67
2021/11/18 07:14:45;;;;;;;61.50;20.83;;;;;;;6.39;100.00;100198.69;5065211;28;20249;-67
2021/11/18 07:17:11;;;;;;;57.13;22.88;;;;;;;6.36;100.00;100198.66;5065542;28;20047;-67
2021/11/18 07:19:37;;;;;;;59.83;21.70;;;;;;;6.38;100.00;100208.28;5065241;28;20049;-67
2021/11/18 07:22:04;;;;;;;54.92;20.17;;;;;;;6.44;100.00;100213.66;5065253;28;20244;-67
2021/11/18 07:24:30;;;;;;;57.78;22.58;;;;;;;6.43;100.00;100222.34;5065190;28;20032;-67
2021/11/18 07:26:55;;;;;;;54.55;21.10;;;;;;;6.25;100.00;100221.06;5065137;28;20025;-67
2021/11/18 07:29:22;;;;;;;51.80;20.85;;;;;;;6.23;100.00;100222.72;5065058;28;20281;-67
2021/11/18 07:31:48;;;;;;;57.25;21.77;;;;;;;6.37;100.00;100221.34;5061892;28;20020;-67
2021/11/18 07:34:16;;;;;;;49.65;19.95;;;;;;;6.45;100.00;100219.75;5064999;28;20341;-67
2021/11/18 07:36:42;;;;;;;53.28;21.05;;;;;;;6.55;100.00;100224.34;5065091;28;20025;-67
2021/11/18 07:39:07;;;;;;;56.97;21.27;;;;;;;6.65;100.00;100223.72;5063721;28;20032;-67
2021/11/18 07:41:33;;;;;;;64.18;21.65;;;;;;;6.72;100.00;100220.38;5064793;28;20024;-67
2021/11/18 07:43:58;;;;;;;56.90;23.33;;;;;;;6.80;100.00;100212.69;5064869;28;20051;-67
2021/11/18 07:46:23;;;;;;;55.63;21.95;;;;;;;6.87;100.00;100217.19;5064739;28;20088;-67
2021/11/18 07:48:50;;;;;;;46.90;18.30;;;;;;;6.92;100.00;100213.78;5064644;28;20252;-67
2021/11/18 07:51:18;;;;;;;43.00;17.83;;;;;;;6.96;100.00;100218.22;5064644;28;20036;-67
2021/11/18 07:53:45;;;;;;;38.05;17.38;;;;;;;6.97;100.00;100222.63;5064612;28;20025;-67
2021/11/18 07:56:11;;;;;;;47.97;19.35;;;;;;;6.96;99.95;100228.72;5064590;28;20398;-67
2021/11/18 07:58:37;;;;;;;54.17;20.67;;;;;;;6.94;100.00;100225.19;5064470;28;20036;-67
2021/11/18 08:01:04;;;;;;;49.38;20.70;;;;;;;7.05;100.00;100226.28;5064526;28;20021;-67
2021/11/18 08:03:30;;;;;;;62.03;22.75;;;;;;;7.15;100.00;100233.44;5063244;28;20375;-67
2021/11/18 08:05:57;;;;;;;60.53;24.02;;;;;;;7.26;100.00;100239.81;5056813;28;20021;-67
2021/11/18 08:08:22;;;;;;;63.72;23.65;;;;;;;7.44;100.00;100236.66;5054782;28;20025;-67
2021/11/18 08:10:48;;;;;;;74.97;27.67;;;;;;;7.54;100.00;100244.72;5052554;28;20027;-67
2021/11/18 08:13:13;;;;;;;63.45;25.17;;;;;;;7.66;100.00;100244.91;5054315;28;20025;-67
2021/11/18 08:15:39;;;;;;;76.35;28.65;;;;;;;7.69;100.00;100249.34;5055426;28;20036;-67
2021/11/18 08:18:05;;;;;;;76.07;29.38;;;;;;;7.76;100.00;100252.09;5058351;28;20026;-67
2021/11/18 08:20:32;;;;;;;81.45;29.85;;;;;;;7.76;100.00;100257.34;5054384;28;20013;-67
2021/11/18 08:22:58;;;;;;;90.00;29.70;;;;;;;7.81;99.57;100250.41;5054353;28;20025;-67
2021/11/18 08:25:26;;;;;;;79.28;30.40;;;;;;;7.83;99.72;100259.19;5051509;28;20280;-67
2021/11/18 08:27:51;;;;;;;87.28;30.70;;;;;;;7.85;99.83;100262.72;5053962;28;20023;-67
2021/11/18 08:30:25;;;;;;;80.00;30.02;;;;;;;7.85;99.89;100254.00;5054462;28;20025;-67
2021/11/18 08:32:53;;;;;;;76.68;29.23;;;;;;;7.92;100.00;100256.75;5054750;28;20075;-67
2021/11/18 08:35:23;;;;;;;84.35;29.90;;;;;;;7.94;99.60;100254.16;5054294;28;20359;-67
2021/11/18 08:37:50;;;;;;;76.95;29.38;;;;;;;7.94;99.49;100262.88;5054897;28;20088;-67
2021/11/18 08:40:17;;;;;;;71.80;29.15;;;;;;;7.93;99.31;100257.59;5054066;28;20324;-67
2021/11/18 08:42:46;;;;;;;68.53;28.10;;;;;;;8.03;99.65;100262.13;5052430;28;20021;-67
2021/11/18 08:45:12;;;;;;;79.68;31.17;;;;;;;8.07;99.54;100259.59;5053838;28;20322;-68
2021/11/18 08:47:38;;;;;;;71.97;27.92;;;;;;;8.13;99.75;100262.31;5053989;28;20025;-68
2021/11/18 08:50:08;;;;;;;76.43;29.33;;;;;;;8.16;99.95;100262.38;5052605;28;20063;-68
2021/11/18 08:52:35;;;;;;;68.78;27.05;;;;;;;8.18;99.25;100268.53;5053532;28;20016;-68
2021/11/18 08:55:06;;;;;;;67.90;28.52;;;;;;;8.20;99.38;100266.81;5054683;28;20301;-68
2021/11/18 08:57:31;;;;;;;87.35;30.05;;;;;;;8.17;98.59;100265.88;5055484;28;20025;-68
2021/11/18 08:59:57;;;;;;;70.85;28.17;;;;;;;8.25;98.82;100265.19;5066486;28;20028;-68
2021/11/18 09:02:24;;;;;;;62.03;26.63;;;;;;;8.29;97.92;100261.72;5066777;28;20055;-68
2021/11/18 09:04:51;;;;;;;73.80;28.25;;;;;;;8.34;98.61;100265.31;5067732;28;20032;-68
2021/11/18 09:07:18;;;;;;;79.47;30.83;;;;;;;8.44;98.48;100266.34;5067747;28;20025;-68
2021/11/18 09:09:43;;;;;;;75.13;28.20;;;;;;;8.39;97.12;100266.25;5067737;28;20044;-68
2021/11/18 09:12:09;;;;;;;74.40;27.83;;;;;;;8.49;97.12;100264.69;5058060;28;20267;-68
2021/11/18 09:14:36;;;;;;;81.93;31.65;;;;;;;8.44;97.65;100255.84;5047409;28;20072;-68
2021/11/18 09:17:04;;;;;;;68.63;29.13;;;;;;;8.50;97.59;100259.44;5047468;28;20131;-67
2021/11/18 09:19:33;;;;;;;71.10;28.60;;;;;;;8.52;97.43;100268.22;5047422;28;20029;-67
2021/11/18 09:22:02;;;;;;;59.13;26.48;;;;;;;8.49;97.87;100270.78;5046025;28;20022;-67
2021/11/18 09:24:31;;;;;;;60.08;27.77;;;;;;;8.45;97.06;100279.47;5046968;28;20260;-67
2021/11/18 09:27:01;;;;;;;66.22;26.80;;;;;;;8.54;97.84;100279.63;5047687;28;20048;-67
2021/11/18 09:29:28;;;;;;;60.67;26.02;;;;;;;8.48;97.14;100284.78;5047709;28;20032;-67
2021/11/18 09:31:58;;;;;;;66.50;25.95;;;;;;;8.49;97.49;100288.28;5047572;28;20132;-67
2021/11/18 09:34:25;;;;;;;59.75;24.92;;;;;;;8.52;96.45;100291.81;5047343;28;20032;-67
2021/11/18 09:36:51;;;;;;;61.40;26.25;;;;;;;8.63;97.23;100290.25;5047147;28;20029;-67
2021/11/18 09:39:16;;;;;;;68.82;25.67;;;;;;;8.59;97.44;100291.09;5047199;28;20144;-67
2021/11/18 09:41:55;;;;;;;58.95;25.50;;;;;;;8.70;96.83;100286.84;5047210;28;20029;-67
2021/11/18 09:44:39;;;;;;;53.55;23.17;;;;;;;8.72;96.39;100293.03;5047433;28;20030;-67
2021/11/18 09:47:38;;;;;;;59.85;24.60;;;;;;;8.76;96.04;100302.69;5047067;28;20078;-67
2021/11/18 09:50:33;;;;;;;56.15;24.25;;;;;;;8.78;96.31;100293.13;5047081;28;20088;-67
2021/11/18 09:53:07;;;;;;;50.80;24.42;;;;;;;8.86;95.88;100302.84;5038613;28;20041;-67
2021/11/18 09:55:44;;;;;;;61.95;24.55;;;;;;;8.89;94.91;100295.84;5046968;28;20033;-67
2021/11/18 09:58:46;;;;;;;56.70;24.25;;;;;;;8.90;95.21;100288.88;5047066;28;20221;-67
2021/11/18 10:01:37;;;;;;;56.53;24.13;;;;;;;8.98;95.04;100280.22;5046873;28;20033;-67
2021/11/18 10:04:36;;;;;;;48.20;21.33;;;;;;;9.06;94.55;100282.97;5047002;28;20025;-67
2021/11/18 10:07:05;;;;;;;53.17;21.98;;;;;;;9.10;93.52;100290.91;5046732;28;20029;-67
2021/11/18 10:09:42;;;;;;;52.42;21.38;;;;;;;9.13;93.83;100287.41;5046616;28;20029;-67
2021/11/18 10:12:20;;;;;;;47.25;20.20;;;;;;;9.18;92.82;100291.00;5046642;28;20053;-67
2021/11/18 10:15:09;;;;;;;49.50;20.55;;;;;;;9.27;91.51;100288.50;5046415;28;20041;-67
2021/11/18 10:17:50;;;;;;;46.03;17.45;;;;;;;9.24;89.22;100281.44;5046505;28;20032;-67
2021/11/18 10:20:23;;;;;;;44.88;19.17;;;;;;;9.22;90.84;100292.78;5046769;28;20025;-67
2021/11/18 10:22:53;;;;;;;36.05;18.98;;;;;;;9.16;90.69;100282.22;5046818;28;20028;-67
2021/11/18 10:25:29;;;;;;;42.75;15.60;;;;;;;9.10;86.79;100287.38;5046674;28;20189;-67
2021/11/18 10:28:00;;;;;;;46.65;18.27;;;;;;;9.11;87.92;100273.41;5046362;28;20027;-67
2021/11/18 10:30:34;;;;;;;46.42;18.83;;;;;;;9.14;89.54;100283.97;5046258;28;20028;-67
2021/11/18 10:33:03;;;;;;;50.92;21.73;;;;;;;9.20;90.18;100270.91;5046176;28;20321;-67
2021/11/18 10:35:40;;;;;;;41.65;18.40;;;;;;;9.27;90.85;100275.34;5046169;28;20032;-67
2021/11/18 10:38:32;;;;;;;46.83;20.08;;;;;;;9.27;90.46;100275.34;5046081;28;20088;-67
2021/11/18 10:41:16;;;;;;;47.15;21.08;;;;;;;9.27;89.77;100267.47;5046150;28;20021;-67
2021/11/18 10:43:43;;;;;;;45.10;20.85;;;;;;;9.27;89.07;100262.22;5046021;28;20029;-67
2021/11/18 10:46:19;;;;;;;48.60;21.38;;;;;;;9.35;89.79;100252.66;5046002;28;20025;-67
2021/11/18 10:49:02;;;;;;;33.97;17.30;;;;;;;9.43;88.39;100245.75;5045973;28;20047;-67
2021/11/18 10:51:34;;;;;;;43.50;18.45;;;;;;;9.50;88.53;100237.97;5045900;28;20025;-67
2021/11/18 10:54:04;;;;;;;43.85;19.35;;;;;;;9.54;87.65;100244.09;5045776;28;20029;-67
2021/11/18 10:56:59;;;;;;;38.72;17.73;;;;;;;9.57;87.01;100238.88;5045980;28;20032;-67
2021/11/18 10:59:40;;;;;;;41.45;17.85;;;;;;;9.49;86.73;100224.81;5045771;28;20055;-67
2021/11/18 11:02:29;;;;;;;41.30;17.30;;;;;;;9.47;87.41;100231.78;5045767;28;20325;-67
2021/11/18 11:05:23;;;;;;;42.17;16.92;;;;;;;9.38;87.97;100231.66;5045526;28;20025;-67
2021/11/18 11:07:48;;;;;;;29.02;13.57;;;;;;;9.45;86.44;100222.97;5041585;28;20052;-67
2021/11/18 11:10:18;;;;;;;33.45;14.13;;;;;;;9.34;87.08;100227.25;5045522;28;20080;-67
2021/11/18 11:13:18;;;;;;;32.00;16.50;;;;;;;9.28;87.49;100243.84;5045515;28;20052;-67
2021/11/18 11:15:53;;;;;;;36.35;16.02;;;;;;;9.22;87.76;100245.50;5045297;28;20045;-67
2021/11/18 11:18:27;;;;;;;42.65;15.90;;;;;;;9.24;88.08;100243.78;5045286;28;20317;-67
2021/11/18 11:21:07;;;;;;;37.88;15.30;;;;;;;9.22;88.66;100240.25;5044787;28;20289;-67